Time;durP1;ratioP1;P1;durP2;ratioP2;P2;SDS_P1;SDS_P2;PMS_P1;PMS_P2;Temp;Humidity;BMP_temperature;BMP_pressure;BME280_temperature;BME280_humidity;BME280_pressure;Samples;Min_cycle;Max_cycle;Signal;HPM_P1;HPM_P2
2021/06/03 00:00:49;;;;;;;8.00;4.70;;;22.10;43.30;;;;;;6169220;28;80902;-62
2021/06/03 00:03:49;;;;;;;10.55;5.07;;;22.10;43.20;;;;;;6164397;28;81304;-63
2021/06/03 00:06:50;;;;;;;7.82;5.32;;;22.10;43.20;;;;;;6180112;28;80507;-62
2021/06/03 00:09:50;;;;;;;11.00;5.13;;;22.10;43.50;;;;;;6180213;28;80496;-62
2021/06/03 00:12:51;;;;;;;9.73;4.80;;;22.10;43.10;;;;;;6180608;28;80431;-62
2021/06/03 00:15:51;;;;;;;8.05;5.03;;;22.10;43.30;;;;;;6180075;28;80570;-62
2021/06/03 00:18:52;;;;;;;8.38;5.20;;;22.10;43.10;;;;;;6169924;28;80835;-62
2021/06/03 00:21:54;;;;;;;8.85;5.10;;;22.00;42.80;;;;;;6180687;28;81620;-62
2021/06/03 00:24:55;;;;;;;8.57;5.28;;;22.10;43.10;;;;;;6178691;28;82911;-64
2021/06/03 00:27:55;;;;;;;12.07;5.32;;;22.00;43.10;;;;;;6176546;28;81484;-62
2021/06/03 00:30:56;;;;;;;9.63;4.90;;;22.10;43.00;;;;;;6166117;28;83040;-62
2021/06/03 00:33:56;;;;;;;7.60;5.18;;;22.00;42.70;;;;;;6154768;28;81704;-62
2021/06/03 00:36:57;;;;;;;7.63;4.90;;;22.00;42.80;;;;;;6164223;28;82896;-63
2021/06/03 00:39:57;;;;;;;7.30;4.75;;;22.00;43.00;;;;;;6178342;28;80569;-62
2021/06/03 00:42:58;;;;;;;8.23;4.65;;;22.10;43.00;;;;;;6178510;28;80407;-63
2021/06/03 00:45:58;;;;;;;8.63;4.72;;;22.00;42.90;;;;;;6167637;28;81416;-62
2021/06/03 00:48:59;;;;;;;10.57;4.90;;;22.00;42.60;;;;;;6167622;28;80419;-63
2021/06/03 00:52:03;;;;;;;8.35;4.60;;;22.00;42.70;;;;;;6182756;28;80603;-63
2021/06/03 00:55:04;;;;;;;8.20;4.75;;;22.00;42.70;;;;;;6198909;28;84089;-62
2021/06/03 00:58:04;;;;;;;8.05;4.65;;;22.00;42.80;;;;;;6157865;28;87688;-63
2021/06/03 01:01:05;;;;;;;8.43;4.80;;;22.00;42.80;;;;;;6157116;28;83279;-63
2021/06/03 01:04:05;;;;;;;7.53;4.88;;;22.00;42.80;;;;;;6157046;28;81835;-63
2021/06/03 01:07:07;;;;;;;8.20;5.38;;;22.00;42.80;;;;;;6171083;28;81580;-62
2021/06/03 01:10:08;;;;;;;7.20;4.95;;;22.00;42.70;;;;;;6182225;28;82320;-63
2021/06/03 01:13:09;;;;;;;8.65;4.80;;;22.00;42.60;;;;;;6184347;28;82739;-63
2021/06/03 01:16:10;;;;;;;6.63;4.50;;;22.00;42.60;;;;;;6179344;28;82106;-63
2021/06/03 01:19:10;;;;;;;6.60;4.65;;;22.00;42.60;;;;;;6171005;28;80076;-63
2021/06/03 01:22:11;;;;;;;9.05;5.13;;;22.00;42.60;;;;;;6181912;28;83394;-63
2021/06/03 01:25:16;;;;;;;7.47;4.55;;;22.00;42.50;;;;;;6198156;28;82854;-63
2021/06/03 01:28:16;;;;;;;8.32;5.07;;;22.00;42.60;;;;;;6181950;28;82420;-63
2021/06/03 01:31:17;;;;;;;5.45;4.38;;;22.00;42.60;;;;;;6169201;28;80320;-62
2021/06/03 01:34:18;;;;;;;9.40;4.95;;;22.00;42.60;;;;;;6171352;28;81284;-61
2021/06/03 01:37:18;;;;;;;8.35;5.20;;;22.00;42.70;;;;;;6181218;28;82910;-61
2021/06/03 01:40:19;;;;;;;7.57;4.68;;;22.00;42.30;;;;;;6167353;28;83356;-61
2021/06/03 01:43:20;;;;;;;7.10;4.32;;;22.00;42.60;;;;;;6171326;28;84109;-62
2021/06/03 01:46:20;;;;;;;6.45;4.53;;;22.00;42.50;;;;;;6181031;28;81467;-62
2021/06/03 01:49:21;;;;;;;10.82;4.97;;;22.00;42.50;;;;;;6189356;28;82463;-62
2021/06/03 01:52:22;;;;;;;7.22;4.60;;;22.00;42.40;;;;;;6157603;28;80482;-63
2021/06/03 01:55:22;;;;;;;8.10;5.15;;;21.90;42.20;;;;;;6172540;28;80875;-63
2021/06/03 01:58:23;;;;;;;8.75;4.82;;;22.00;42.30;;;;;;6178901;28;81035;-62
2021/06/03 02:01:23;;;;;;;6.75;5.07;;;21.90;42.20;;;;;;6165905;28;80450;-64
2021/06/03 02:04:24;;;;;;;10.40;5.78;;;21.90;42.30;;;;;;6156917;28;80876;-64
2021/06/03 02:07:27;;;;;;;8.30;5.00;;;21.90;42.60;;;;;;6156865;28;81376;-64
2021/06/03 02:10:28;;;;;;;9.43;5.63;;;21.90;42.50;;;;;;6156184;28;83671;-64
2021/06/03 02:13:28;;;;;;;6.82;4.55;;;22.00;42.50;;;;;;6182363;28;83527;-65
2021/06/03 02:16:30;;;;;;;8.27;5.82;;;21.90;42.60;;;;;;6164909;28;82941;-64
2021/06/03 02:19:31;;;;;;;9.10;4.72;;;21.90;42.40;;;;;;6188678;28;82805;-64
2021/06/03 02:22:33;;;;;;;8.30;5.10;;;21.90;42.40;;;;;;6182089;28;80749;-64
2021/06/03 02:25:34;;;;;;;8.73;5.53;;;21.90;42.60;;;;;;6182055;28;80449;-64
2021/06/03 02:28:36;;;;;;;11.27;4.78;;;21.90;42.40;;;;;;6179810;28;83945;-65
2021/06/03 02:31:37;;;;;;;8.80;5.05;;;21.90;42.60;;;;;;6157690;28;81620;-64
2021/06/03 02:34:38;;;;;;;12.02;5.20;;;21.90;42.40;;;;;;6173824;28;81385;-64
2021/06/03 02:37:40;;;;;;;8.73;5.20;;;21.90;42.60;;;;;;6171497;28;82717;-64
2021/06/03 02:40:42;;;;;;;8.43;5.75;;;21.90;42.40;;;;;;6182789;28;81816;-64
2021/06/03 02:43:43;;;;;;;11.23;5.35;;;21.90;42.60;;;;;;6157015;28;81471;-64
2021/06/03 02:46:44;;;;;;;8.25;5.05;;;21.90;42.40;;;;;;6140601;28;84880;-64
2021/06/03 02:49:46;;;;;;;11.88;6.07;;;21.90;42.60;;;;;;6173276;28;83277;-64
2021/06/03 02:52:48;;;;;;;10.10;5.05;;;21.90;42.50;;;;;;6178710;28;83263;-64
2021/06/03 02:55:51;;;;;;;12.23;5.03;;;21.90;42.50;;;;;;6162035;28;81637;-64
2021/06/03 02:58:52;;;;;;;9.13;5.45;;;21.90;42.50;;;;;;6152921;28;83019;-64
2021/06/03 03:01:55;;;;;;;7.30;5.40;;;21.90;42.50;;;;;;6174175;28;82309;-65
2021/06/03 03:04:57;;;;;;;7.05;4.93;;;21.90;42.40;;;;;;6160054;28;82833;-64
2021/06/03 03:07:58;;;;;;;10.93;6.28;;;21.90;42.70;;;;;;6155740;28;82517;-64
2021/06/03 03:10:59;;;;;;;9.50;5.40;;;21.90;42.30;;;;;;6173301;28;83341;-63
2021/06/03 03:14:05;;;;;;;9.85;5.88;;;21.90;42.30;;;;;;6177371;28;82304;-63
2021/06/03 03:17:08;;;;;;;8.93;5.35;;;21.90;42.40;;;;;;6158003;28;81543;-63
2021/06/03 03:20:13;;;;;;;11.02;5.30;;;21.90;42.60;;;;;;6171001;28;83413;-64
2021/06/03 03:23:15;;;;;;;8.55;5.25;;;21.90;42.40;;;;;;6154778;28;83793;-63
2021/06/03 03:26:18;;;;;;;9.32;5.07;;;21.90;42.30;;;;;;6176800;28;82974;-63
2021/06/03 03:29:19;;;;;;;8.43;5.53;;;21.90;42.20;;;;;;6157450;28;83673;-63
2021/06/03 03:32:20;;;;;;;7.25;5.13;;;21.90;42.30;;;;;;6185839;28;83035;-63
2021/06/03 03:35:21;;;;;;;11.18;6.25;;;21.90;42.30;;;;;;6156552;28;80621;-62
2021/06/03 03:38:22;;;;;;;9.85;5.57;;;21.90;42.40;;;;;;6154145;28;83369;-63
2021/06/03 03:41:25;;;;;;;9.73;5.03;;;21.90;42.60;;;;;;6176093;28;80556;-65
2021/06/03 03:44:26;;;;;;;7.40;4.97;;;21.90;42.30;;;;;;6178463;28;80620;-64
2021/06/03 03:47:27;;;;;;;7.35;5.35;;;21.90;42.20;;;;;;6180518;28;81270;-64
2021/06/03 03:50:28;;;;;;;6.57;4.60;;;21.90;42.40;;;;;;6157313;28;80311;-62
2021/06/03 03:53:29;;;;;;;7.65;5.50;;;21.90;42.40;;;;;;6194543;28;82116;-61
2021/06/03 03:56:31;;;;;;;8.05;5.30;;;21.80;42.20;;;;;;6160852;28;82790;-62
2021/06/03 03:59:32;;;;;;;7.72;5.28;;;21.80;42.50;;;;;;6155683;28;80607;-62
2021/06/03 04:02:32;;;;;;;8.98;5.30;;;21.90;42.60;;;;;;6179417;28;83642;-62
2021/06/03 04:05:33;;;;;;;9.85;5.93;;;21.90;42.20;;;;;;6176835;28;83096;-62
2021/06/03 04:08:41;;;;;;;10.57;5.90;;;21.90;42.50;;;;;;6189317;28;88070;-62
2021/06/03 04:11:42;;;;;;;9.45;5.28;;;21.90;42.20;;;;;;6195662;28;81564;-62
2021/06/03 04:14:43;;;;;;;7.03;4.88;;;21.90;42.40;;;;;;6179196;28;81746;-62
2021/06/03 04:17:44;;;;;;;9.50;5.45;;;21.90;42.00;;;;;;6163258;28;82392;-63
2021/06/03 04:20:45;;;;;;;11.63;5.07;;;21.90;42.60;;;;;;6194292;28;83416;-63
2021/06/03 04:23:46;;;;;;;9.00;5.72;;;21.90;42.70;;;;;;6160035;28;83236;-63
2021/06/03 04:26:47;;;;;;;9.75;5.35;;;21.90;42.70;;;;;;6183658;28;80418;-64
2021/06/03 04:29:48;;;;;;;9.75;6.25;;;21.90;42.80;;;;;;6160819;28;81160;-63
2021/06/03 04:32:48;;;;;;;12.02;5.57;;;21.90;43.20;;;;;;6190904;28;80656;-64
2021/06/03 04:35:49;;;;;;;10.73;5.15;;;21.90;44.60;;;;;;6161558;28;82655;-64
2021/06/03 04:38:50;;;;;;;7.57;4.95;;;21.90;44.10;;;;;;6184680;28;81096;-63
2021/06/03 04:41:50;;;;;;;10.55;6.15;;;21.90;44.40;;;;;;6181843;28;80655;-64
2021/06/03 04:44:51;;;;;;;10.23;5.28;;;22.00;44.30;;;;;;6160203;28;82626;-63
2021/06/03 04:47:51;;;;;;;9.73;5.50;;;22.00;44.30;;;;;;6182089;28;80293;-63
2021/06/03 04:50:52;;;;;;;8.35;5.10;;;22.00;44.70;;;;;;6162092;28;80818;-65
2021/06/03 04:53:52;;;;;;;11.32;4.90;;;22.00;45.10;;;;;;6183544;28;80350;-63
2021/06/03 04:56:54;;;;;;;10.90;4.88;;;22.00;44.50;;;;;;6184024;28;80811;-65
2021/06/03 04:59:55;;;;;;;12.15;5.38;;;22.00;45.00;;;;;;6180223;28;80491;-65
2021/06/03 05:02:55;;;;;;;9.60;5.93;;;22.00;45.40;;;;;;6158656;28;81742;-64
2021/06/03 05:05:56;;;;;;;12.23;6.60;;;22.00;45.70;;;;;;6157768;28;80503;-64
2021/06/03 05:08:56;;;;;;;8.15;5.70;;;22.00;45.80;;;;;;6180498;28;82181;-64
2021/06/03 05:11:57;;;;;;;15.70;5.95;;;22.10;45.90;;;;;;6162408;28;80734;-64
2021/06/03 05:14:57;;;;;;;10.70;5.38;;;22.00;45.80;;;;;;6179631;28;80956;-65
2021/06/03 05:17:58;;;;;;;11.02;5.18;;;22.00;46.00;;;;;;6162044;28;82016;-63
2021/06/03 05:21:02;;;;;;;11.88;6.10;;;22.10;45.80;;;;;;6177871;28;82836;-64
2021/06/03 05:24:02;;;;;;;12.98;6.32;;;22.10;45.90;;;;;;6163162;28;80153;-64
2021/06/03 05:27:03;;;;;;;15.50;6.15;;;22.10;45.80;;;;;;6180441;28;80636;-63
2021/06/03 05:30:03;;;;;;;14.23;5.90;;;22.10;45.70;;;;;;6180633;28;81254;-62
2021/06/03 05:33:04;;;;;;;11.82;5.82;;;22.00;45.50;;;;;;6182195;28;80680;-63
2021/06/03 05:36:04;;;;;;;11.73;6.65;;;22.10;45.20;;;;;;6182789;28;83766;-63
2021/06/03 05:39:05;;;;;;;14.02;6.88;;;22.10;45.80;;;;;;6179098;28;80728;-64
2021/06/03 05:42:05;;;;;;;12.95;6.35;;;22.10;45.20;;;;;;6163270;28;81147;-61
2021/06/03 05:45:07;;;;;;;14.45;6.50;;;22.00;44.30;;;;;;6175002;28;80643;-61
2021/06/03 05:48:08;;;;;;;13.60;6.43;;;22.10;44.50;;;;;;6171269;28;80734;-63
2021/06/03 05:51:08;;;;;;;15.75;7.03;;;22.00;44.30;;;;;;6155045;28;81158;-62
2021/06/03 05:54:09;;;;;;;9.90;5.68;;;22.00;47.00;;;;;;6157552;28;81605;-65
2021/06/03 05:57:09;;;;;;;12.48;6.68;;;22.10;46.20;;;;;;6169567;28;82704;-64
2021/06/03 06:00:10;;;;;;;17.27;8.50;;;22.10;46.10;;;;;;6159871;28;81695;-64
2021/06/03 06:03:21;;;;;;;14.75;8.40;;;22.00;45.50;;;;;;6159763;28;81275;-64
2021/06/03 06:06:25;;;;;;;13.95;8.05;;;22.00;45.20;;;;;;6173937;28;80597;-63
2021/06/03 06:09:25;;;;;;;15.57;8.15;;;21.90;44.90;;;;;;6181885;28;81592;-63
2021/06/03 06:12:26;;;;;;;12.38;7.80;;;21.80;44.50;;;;;;6180528;28;80788;-63
2021/06/03 06:15:26;;;;;;;17.55;8.20;;;21.80;44.50;;;;;;6182005;28;80531;-63
2021/06/03 06:18:27;;;;;;;22.27;8.85;;;21.80;44.70;;;;;;6181299;28;80373;-64
2021/06/03 06:21:27;;;;;;;16.27;9.00;;;21.80;44.90;;;;;;6182559;28;80221;-63
2021/06/03 06:24:28;;;;;;;15.15;8.77;;;21.70;45.10;;;;;;6181726;28;80255;-63
2021/06/03 06:27:28;;;;;;;18.23;8.98;;;21.70;44.60;;;;;;6169670;28;80922;-62
2021/06/03 06:30:29;;;;;;;20.15;9.93;;;21.70;44.90;;;;;;6160181;28;80440;-63
2021/06/03 06:33:29;;;;;;;18.75;8.23;;;21.70;44.60;;;;;;6181810;28;80129;-63
2021/06/03 06:36:30;;;;;;;16.80;8.48;;;21.60;44.30;;;;;;6180626;28;83041;-63
2021/06/03 06:39:30;;;;;;;14.50;8.30;;;21.60;44.30;;;;;;6179747;28;80581;-63
2021/06/03 06:42:33;;;;;;;17.83;8.73;;;21.60;44.90;;;;;;6180245;28;81051;-63
2021/06/03 06:45:37;;;;;;;18.40;8.75;;;21.70;45.10;;;;;;6172809;28;82420;-63
2021/06/03 06:48:37;;;;;;;12.32;7.22;;;21.60;45.10;;;;;;6164518;28;80482;-63
2021/06/03 06:51:38;;;;;;;11.70;7.65;;;21.60;44.90;;;;;;6181901;28;81359;-63
2021/06/03 06:54:39;;;;;;;11.82;7.30;;;21.60;44.90;;;;;;6172768;28;81400;-63
2021/06/03 06:57:40;;;;;;;16.60;7.10;;;21.70;44.80;;;;;;6162810;28;83729;-63
2021/06/03 07:00:40;;;;;;;10.50;6.75;;;21.70;44.80;;;;;;6172543;28;82073;-63
2021/06/03 07:03:41;;;;;;;10.73;6.22;;;21.70;44.40;;;;;;6161444;28;82109;-64
2021/06/03 07:06:41;;;;;;;12.55;6.40;;;21.70;44.50;;;;;;6180885;28;80540;-64
2021/06/03 07:09:42;;;;;;;12.70;6.35;;;21.70;44.10;;;;;;6171984;28;81107;-64
2021/06/03 07:12:43;;;;;;;11.52;6.38;;;21.70;45.40;;;;;;6166277;28;80547;-63
2021/06/03 07:15:43;;;;;;;12.32;7.45;;;21.70;44.90;;;;;;6171688;28;80537;-63
2021/06/03 07:18:44;;;;;;;12.85;6.82;;;21.70;44.80;;;;;;6166833;28;80654;-63
2021/06/03 07:21:44;;;;;;;13.75;6.80;;;21.80;44.90;;;;;;6171968;28;80079;-63
2021/06/03 07:24:45;;;;;;;11.57;6.00;;;21.80;44.70;;;;;;6156468;28;81759;-64
2021/06/03 07:27:46;;;;;;;14.32;6.43;;;21.80;44.20;;;;;;6162004;28;81042;-63
2021/06/03 07:30:46;;;;;;;11.40;6.18;;;21.80;44.50;;;;;;6171009;28;80456;-63
2021/06/03 07:33:47;;;;;;;9.70;6.05;;;21.80;44.30;;;;;;6157335;28;81128;-64
2021/06/03 07:36:47;;;;;;;9.55;5.10;;;21.80;44.00;;;;;;6156561;28;81935;-63
2021/06/03 07:39:48;;;;;;;12.98;5.72;;;21.90;43.90;;;;;;6166503;28;80947;-63
2021/06/03 07:42:49;;;;;;;9.23;5.53;;;21.90;44.30;;;;;;6168741;28;80325;-63
2021/06/03 07:45:49;;;;;;;9.57;5.43;;;21.90;44.00;;;;;;6157056;28;81095;-63
2021/06/03 07:48:50;;;;;;;8.95;4.95;;;21.90;44.50;;;;;;6156287;28;82224;-64
2021/06/03 07:51:50;;;;;;;8.98;5.35;;;21.90;43.90;;;;;;6161900;28;80333;-65
2021/06/03 07:54:51;;;;;;;9.00;5.30;;;21.90;43.70;;;;;;6173402;28;80306;-64
2021/06/03 07:57:51;;;;;;;8.32;4.63;;;21.90;43.90;;;;;;6168311;28;82254;-64
2021/06/03 08:00:52;;;;;;;9.60;5.25;;;21.90;43.70;;;;;;6154623;28;81137;-64
2021/06/03 08:03:53;;;;;;;9.63;5.10;;;21.90;44.00;;;;;;6156072;28;80576;-64
2021/06/03 08:06:53;;;;;;;6.30;4.28;;;22.00;44.10;;;;;;6172768;28;81017;-64
2021/06/03 08:09:53;;;;;;;11.20;4.40;;;22.00;44.20;;;;;;6166732;28;80752;-63
2021/06/03 08:12:54;;;;;;;9.23;5.15;;;22.00;43.60;;;;;;6168015;28;83717;-63
2021/06/03 08:15:55;;;;;;;10.10;5.68;;;22.00;43.30;;;;;;6165852;28;81436;-64
2021/06/03 08:18:56;;;;;;;6.70;4.32;;;22.00;43.40;;;;;;6174281;28;80772;-61
2021/06/03 08:21:57;;;;;;;6.22;4.43;;;22.00;43.10;;;;;;6187264;28;80899;-62
2021/06/03 08:24:57;;;;;;;7.00;4.57;;;22.00;42.50;;;;;;6166787;28;80617;-62
2021/06/03 08:27:58;;;;;;;11.15;4.70;;;22.00;42.50;;;;;;6168562;28;80411;-62
2021/06/03 08:31:00;;;;;;;6.18;3.90;;;22.00;44.10;;;;;;6165924;28;81208;-63
2021/06/03 08:34:04;;;;;;;6.28;3.83;;;22.00;43.50;;;;;;6164000;28;80781;-62
2021/06/03 08:37:04;;;;;;;9.02;4.28;;;22.00;43.10;;;;;;6153596;28;81360;-63
2021/06/03 08:40:05;;;;;;;6.80;4.55;;;22.00;43.30;;;;;;6151132;28;83234;-62
2021/06/03 08:43:05;;;;;;;9.55;4.00;;;22.00;43.40;;;;;;6153724;28;80412;-64
2021/06/03 08:46:06;;;;;;;8.10;4.00;;;22.00;43.50;;;;;;6155405;28;80717;-64
2021/06/03 08:49:07;;;;;;;9.13;4.45;;;22.00;43.20;;;;;;6155581;28;80555;-63
2021/06/03 08:52:07;;;;;;;7.45;4.47;;;22.00;43.20;;;;;;6139108;28;83856;-64
2021/06/03 08:55:08;;;;;;;8.05;4.75;;;22.10;43.70;;;;;;6168289;28;80260;-63
2021/06/03 08:58:09;;;;;;;8.90;4.70;;;22.10;44.10;;;;;;6177675;28;80860;-64
2021/06/03 09:01:09;;;;;;;11.35;4.60;;;22.10;44.40;;;;;;6167695;28;80584;-65
2021/06/03 09:04:10;;;;;;;6.20;3.78;;;22.00;44.00;;;;;;6150948;28;83120;-67
2021/06/03 09:07:10;;;;;;;9.93;4.10;;;22.10;43.90;;;;;;6154181;28;83522;-64
2021/06/03 09:10:11;;;;;;;7.57;4.55;;;22.20;43.70;;;;;;6172069;28;80883;-64
2021/06/03 09:13:11;;;;;;;6.22;4.25;;;22.20;43.10;;;;;;6183429;28;80745;-63
2021/06/03 09:16:12;;;;;;;8.90;4.18;;;22.10;43.60;;;;;;6180173;28;80575;-65
2021/06/03 09:19:13;;;;;;;12.05;4.13;;;22.10;45.50;;;;;;6170794;28;81045;-63
2021/06/03 09:22:13;;;;;;;11.02;4.50;;;22.10;46.60;;;;;;6162226;28;81117;-62
2021/06/03 09:25:14;;;;;;;7.43;5.05;;;22.10;49.70;;;;;;6160681;28;80443;-62
2021/06/03 09:28:14;;;;;;;8.13;3.53;;;22.20;51.40;;;;;;6169942;28;81413;-60
2021/06/03 09:31:15;;;;;;;4.55;3.15;;;22.20;45.50;;;;;;6177577;28;87461;-61
2021/06/03 09:34:15;;;;;;;11.85;3.97;;;22.20;44.30;;;;;;6173288;28;82848;-62
2021/06/03 09:37:16;;;;;;;7.43;3.67;;;22.30;45.40;;;;;;6159484;28;81278;-61
2021/06/03 09:40:17;;;;;;;7.72;3.97;;;22.30;44.10;;;;;;6155883;28;81096;-62
2021/06/03 09:43:17;;;;;;;20.58;7.05;;;22.30;52.00;;;;;;6166876;28;79978;-63
2021/06/03 09:46:18;;;;;;;13.02;5.82;;;22.30;54.90;;;;;;6182619;28;80405;-63
2021/06/03 09:49:18;;;;;;;10.02;5.85;;;22.40;57.00;;;;;;6173122;28;81688;-62
2021/06/03 09:52:19;;;;;;;14.15;5.43;;;22.40;55.40;;;;;;6160975;28;80323;-62
2021/06/03 09:55:19;;;;;;;9.95;5.63;;;22.40;54.80;;;;;;6183852;28;80626;-63
2021/06/03 09:58:20;;;;;;;16.30;5.38;;;22.40;55.20;;;;;;6172978;28;80604;-63
2021/06/03 10:01:20;;;;;;;8.63;4.53;;;22.40;53.40;;;;;;6181561;28;81455;-62
2021/06/03 10:04:21;;;;;;;8.48;4.20;;;22.40;48.80;;;;;;6183743;28;83030;-62
2021/06/03 10:07:22;;;;;;;9.85;3.20;;;22.40;48.10;;;;;;6180943;28;81828;-62
2021/06/03 10:10:22;;;;;;;8.40;4.47;;;22.40;45.90;;;;;;6181405;28;80451;-62
2021/06/03 10:13:23;;;;;;;11.40;3.70;;;22.40;45.90;;;;;;6167726;28;81348;-63
2021/06/03 10:16:23;;;;;;;7.10;3.60;;;22.40;45.20;;;;;;6181488;28;82064;-63
2021/06/03 10:19:24;;;;;;;8.98;4.22;;;22.40;45.20;;;;;;6180310;28;80894;-63
2021/06/03 10:22:25;;;;;;;8.30;3.97;;;22.50;45.10;;;;;;6181574;28;84140;-63
2021/06/03 10:25:25;;;;;;;8.15;3.42;;;22.50;44.90;;;;;;6182275;28;82426;-63
2021/06/03 10:28:26;;;;;;;8.38;3.58;;;22.50;44.00;;;;;;6172310;28;80512;-64
2021/06/03 10:31:26;;;;;;;8.82;3.38;;;22.50;43.40;;;;;;6172296;28;80813;-63
2021/06/03 10:34:27;;;;;;;6.70;3.60;;;22.60;43.60;;;;;;6182451;28;80968;-63
2021/06/03 10:37:27;;;;;;;11.10;3.80;;;22.60;43.90;;;;;;6181741;28;80216;-63
2021/06/03 10:40:28;;;;;;;7.65;3.10;;;22.60;43.80;;;;;;6188911;28;80459;-62
2021/06/03 10:43:28;;;;;;;7.63;3.72;;;22.70;43.80;;;;;;6172460;28;81128;-63
2021/06/03 10:46:29;;;;;;;7.15;3.20;;;22.70;44.00;;;;;;6188484;28;80383;-63
2021/06/03 10:49:31;;;;;;;7.32;3.80;;;22.70;44.00;;;;;;6163771;28;80840;-63
2021/06/03 10:52:32;;;;;;;6.32;2.83;;;22.70;44.10;;;;;;6172514;28;81872;-62
2021/06/03 10:55:32;;;;;;;5.88;3.17;;;22.70;42.30;;;;;;6165644;28;80135;-62
2021/06/03 10:58:33;;;;;;;4.90;2.95;;;22.70;43.70;;;;;;6153360;28;81706;-64
2021/06/03 11:01:34;;;;;;;4.70;3.00;;;22.60;42.20;;;;;;6154894;28;80994;-63
2021/06/03 11:04:34;;;;;;;5.28;2.90;;;22.70;43.40;;;;;;6170262;28;80423;-64
2021/06/03 11:07:35;;;;;;;5.18;3.00;;;22.60;43.40;;;;;;6159615;28;80431;-64
2021/06/03 11:10:35;;;;;;;5.18;3.10;;;22.70;40.80;;;;;;6157221;28;80454;-65
2021/06/03 11:13:36;;;;;;;6.32;2.97;;;22.70;41.50;;;;;;6169926;28;81056;-64
2021/06/03 11:16:38;;;;;;;7.43;3.50;;;22.70;42.00;;;;;;6164806;28;80492;-64
2021/06/03 11:19:39;;;;;;;6.15;3.33;;;22.70;42.60;;;;;;6155928;28;80898;-65
2021/06/03 11:22:39;;;;;;;6.97;3.42;;;22.70;43.00;;;;;;6173354;28;80602;-64
2021/06/03 11:25:40;;;;;;;6.05;3.00;;;22.70;42.70;;;;;;6180487;28;80482;-65
2021/06/03 11:28:40;;;;;;;7.13;3.22;;;22.70;42.80;;;;;;6164241;28;81475;-63
2021/06/03 11:31:41;;;;;;;43.33;20.25;;;22.70;42.40;;;;;;6172694;28;81300;-64
2021/06/03 11:34:41;;;;;;;45.38;21.98;;;22.70;43.10;;;;;;6171428;28;84335;-65
2021/06/03 11:37:43;;;;;;;25.23;13.60;;;22.70;40.50;;;;;;6149020;28;84495;-63
2021/06/03 11:40:43;;;;;;;52.17;26.63;;;22.70;39.00;;;;;;6147226;28;84936;-64
2021/06/03 11:43:44;;;;;;;37.95;19.90;;;22.70;39.40;;;;;;6145444;27;82943;-63
2021/06/03 11:46:44;;;;;;;19.50;10.02;;;22.70;38.90;;;;;;6137484;28;86306;-64
2021/06/03 11:49:45;;;;;;;14.05;7.60;;;22.70;36.90;;;;;;6176124;28;89158;-64
2021/06/03 11:52:45;;;;;;;11.85;5.30;;;22.70;36.60;;;;;;6175463;28;84256;-64
2021/06/03 11:55:47;;;;;;;20.02;5.07;;;22.60;36.20;;;;;;6174121;28;80727;-65
2021/06/03 11:58:47;;;;;;;4.93;3.70;;;22.60;35.10;;;;;;6155239;28;80392;-64
2021/06/03 12:01:48;;;;;;;4.78;2.80;;;22.60;35.50;;;;;;6149240;28;80392;-66
2021/06/03 12:04:48;;;;;;;9.73;3.85;;;22.60;35.20;;;;;;6169687;28;81257;-66
2021/06/03 12:07:49;;;;;;;5.57;2.60;;;22.60;35.50;;;;;;6178047;28;83252;-63
2021/06/03 12:10:49;;;;;;;3.75;2.85;;;22.60;35.50;;;;;;6150154;28;81300;-62
2021/06/03 12:13:50;;;;;;;3.70;2.88;;;22.60;35.70;;;;;;6147082;28;80837;-63
2021/06/03 12:16:50;;;;;;;32.20;7.47;;;22.60;36.20;;;;;;6145398;28;80340;-63
2021/06/03 12:19:52;;;;;;;19.42;6.18;;;22.70;36.40;;;;;;6179981;28;82388;-64
2021/06/03 12:22:52;;;;;;;162.93;67.78;;;22.70;36.40;;;;;;6153937;28;80772;-63
2021/06/03 12:25:53;;;;;;;61.75;26.42;;;22.70;35.60;;;;;;6156953;28;83387;-65
2021/06/03 12:28:54;;;;;;;79.97;31.50;;;22.70;35.90;;;;;;6169025;28;83073;-66
2021/06/03 12:31:54;;;;;;;49.10;17.38;;;22.70;35.90;;;;;;6151668;28;84621;-66
2021/06/03 12:34:54;;;;;;;24.98;11.80;;;22.70;36.10;;;;;;6139492;28;83283;-67
2021/06/03 12:37:55;;;;;;;28.05;12.23;;;22.70;35.30;;;;;;6144743;28;83110;-67
2021/06/03 12:40:55;;;;;;;21.90;10.93;;;22.70;35.20;;;;;;6148336;28;83109;-67
2021/06/03 12:43:57;;;;;;;13.40;7.35;;;22.70;35.80;;;;;;6149778;28;83307;-68
2021/06/03 12:47:00;;;;;;;12.30;6.20;;;22.70;34.70;;;;;;6152505;28;82797;-67
2021/06/03 12:50:00;;;;;;;8.85;3.65;;;22.70;34.50;;;;;;6178364;28;80585;-66
2021/06/03 12:53:01;;;;;;;6.85;2.92;;;22.70;34.50;;;;;;6184574;28;81295;-66
2021/06/03 12:56:01;;;;;;;4.22;2.65;;;22.60;34.40;;;;;;6187193;28;80594;-66
2021/06/03 12:59:02;;;;;;;5.88;2.40;;;22.70;34.60;;;;;;6158664;28;81025;-65
2021/06/03 13:02:02;;;;;;;5.00;2.42;;;22.70;34.60;;;;;;6180543;28;80968;-66
2021/06/03 13:05:03;;;;;;;8.38;2.40;;;22.70;34.90;;;;;;6184630;28;80443;-68
2021/06/03 13:08:03;;;;;;;4.20;2.70;;;22.70;35.50;;;;;;6162127;28;80694;-64
2021/06/03 13:11:04;;;;;;;3.92;2.25;;;22.70;35.00;;;;;;6154781;28;80466;-64
2021/06/03 13:14:04;;;;;;;4.15;2.80;;;22.70;35.30;;;;;;6156282;28;80270;-65
2021/06/03 13:17:05;;;;;;;6.13;2.63;;;22.70;35.60;;;;;;6177679;28;82518;-63
2021/06/03 13:20:05;;;;;;;3.35;2.53;;;22.70;35.80;;;;;;6198927;28;82377;-63
2021/06/03 13:23:06;;;;;;;5.93;2.50;;;22.70;36.30;;;;;;6183870;28;80856;-64
2021/06/03 13:26:06;;;;;;;3.72;2.30;;;22.70;36.60;;;;;;6160873;28;81367;-64
2021/06/03 13:29:07;;;;;;;2.78;2.25;;;22.70;37.30;;;;;;6175235;28;80995;-64
2021/06/03 13:32:07;;;;;;;8.75;2.83;;;22.70;37.70;;;;;;6198301;28;81231;-66
2021/06/03 13:35:08;;;;;;;3.33;2.30;;;22.80;38.00;;;;;;6177476;28;81547;-63
2021/06/03 13:38:08;;;;;;;4.57;2.67;;;22.80;38.40;;;;;;6153070;28;82374;-63
2021/06/03 13:41:09;;;;;;;5.55;2.33;;;22.80;38.60;;;;;;6169084;28;81213;-63
2021/06/03 13:44:11;;;;;;;3.20;2.28;;;22.80;38.80;;;;;;6177697;28;80804;-62
2021/06/03 13:47:11;;;;;;;5.13;2.28;;;22.90;39.30;;;;;;6158113;28;80351;-65
2021/06/03 13:50:12;;;;;;;4.03;2.30;;;22.90;40.10;;;;;;6180770;28;81457;-63
2021/06/03 13:53:12;;;;;;;3.20;2.50;;;22.90;40.40;;;;;;6171265;28;80595;-63
2021/06/03 13:56:13;;;;;;;5.43;2.42;;;22.90;40.50;;;;;;6178214;28;80375;-63
2021/06/03 13:59:13;;;;;;;3.53;2.00;;;22.90;40.70;;;;;;6162709;28;80594;-64
2021/06/03 14:02:14;;;;;;;2.90;2.33;;;22.80;40.70;;;;;;6172668;28;80855;-63
2021/06/03 14:05:14;;;;;;;3.00;2.25;;;22.80;40.70;;;;;;6198013;28;81149;-65
2021/06/03 14:08:15;;;;;;;3.63;2.47;;;22.80;40.70;;;;;;6182323;28;81866;-62
2021/06/03 14:14:45;;;;;;;4.00;2.53;;;22.80;40.80;;;;;;6173971;28;85107;-63
2021/06/03 14:17:45;;;;;;;4.80;2.63;;;22.80;41.20;;;;;;6156345;28;81635;-63
2021/06/03 14:20:46;;;;;;;3.15;2.55;;;22.90;41.50;;;;;;6182270;28;80669;-63
2021/06/03 14:23:46;;;;;;;6.40;2.30;;;22.80;41.80;;;;;;6177576;28;80364;-62
2021/06/03 14:26:47;;;;;;;4.43;2.38;;;22.80;42.00;;;;;;6179606;28;81522;-61
2021/06/03 14:29:47;;;;;;;3.30;2.30;;;22.90;42.30;;;;;;6152638;28;81627;-64
2021/06/03 14:32:48;;;;;;;3.28;2.40;;;22.90;42.30;;;;;;6179741;28;80473;-64
2021/06/03 14:35:49;;;;;;;10.15;2.92;;;22.90;42.20;;;;;;6158590;28;80284;-65
2021/06/03 14:38:49;;;;;;;4.72;2.20;;;22.80;42.20;;;;;;6178263;28;81073;-63
2021/06/03 14:41:50;;;;;;;14.50;3.42;;;22.90;42.60;;;;;;6151163;28;82076;-65
2021/06/03 14:44:50;;;;;;;7.25;2.78;;;22.80;40.40;;;;;;6179704;28;80807;-64
2021/06/03 14:47:51;;;;;;;4.32;2.85;;;22.90;41.40;;;;;;6175978;28;80403;-65
2021/06/03 14:50:51;;;;;;;6.10;2.75;;;22.90;41.80;;;;;;6179824;28;80958;-65
2021/06/03 14:53:52;;;;;;;3.03;2.45;;;22.90;41.60;;;;;;6159666;28;80782;-65
2021/06/03 14:56:52;;;;;;;3.25;2.50;;;22.90;41.50;;;;;;6178429;28;80424;-64
2021/06/03 14:59:53;;;;;;;5.85;2.80;;;22.90;41.30;;;;;;6159740;28;80597;-65
2021/06/03 15:02:53;;;;;;;3.72;2.40;;;22.90;41.40;;;;;;6194044;28;81636;-65
2021/06/03 15:05:54;;;;;;;5.07;2.45;;;22.90;41.20;;;;;;6155734;28;80972;-65
2021/06/03 15:08:55;;;;;;;4.90;2.30;;;22.80;40.90;;;;;;6155137;28;80426;-64
2021/06/03 15:11:55;;;;;;;3.53;2.88;;;22.80;41.20;;;;;;6177943;28;80758;-65
2021/06/03 15:14:56;;;;;;;5.50;2.50;;;22.80;40.60;;;;;;6158320;28;81360;-64
2021/06/03 15:17:56;;;;;;;4.47;2.50;;;22.80;40.80;;;;;;6181509;28;80280;-65
2021/06/03 15:20:57;;;;;;;10.23;2.67;;;22.80;40.90;;;;;;6180220;28;81871;-65
2021/06/03 15:23:57;;;;;;;3.55;2.70;;;22.80;40.80;;;;;;6172939;28;80447;-65
2021/06/03 15:26:58;;;;;;;4.95;2.85;;;22.80;40.70;;;;;;6157700;28;80482;-64
2021/06/03 15:29:59;;;;;;;3.60;2.70;;;22.80;40.30;;;;;;6181404;28;80650;-65
2021/06/03 15:33:01;;;;;;;4.45;2.42;;;22.80;40.50;;;;;;6164358;28;84180;-65
2021/06/03 15:36:02;;;;;;;3.22;2.38;;;22.80;40.30;;;;;;6159177;28;80353;-65
2021/06/03 15:39:02;;;;;;;2.92;2.50;;;22.80;40.40;;;;;;6179688;28;80866;-66